Beaver Creek, Yukon Territory

10:46 AM PDT on May 25, 2017 (GMT -0700)
Beaver Creek | | Change Station

Elev 2129 ft 62.42 °N, 140.87 °W | Updated 46 minutes ago

Partly Cloudy
Partly Cloudy
52 °F
Feels Like 52 °F
N
8
Wind Variable Wind from NW

Today
High -- | Low -- °F
--% Chance of Precip.
Yesterday
High -- | Low -- °F
Precip. -- in
Pressure 29.88 in
Visibility 30.0 miles
Clouds Few 7000 ft
Few 10000 ft
Scattered Clouds 22000 ft
Dew Point 27 °F
Humidity 38%
Rainfall 0.00 in
Snow Depth Not available.
4:59 AM 11:43 PM
Waning Crescent, 0% visible
METAR CYXQ 251700Z 32007KT 310V020 30SM FEW070 FEW100 SCT220 11/M03 A2983 RMK AC1AC1CI1 SLP117 DENSITY ALT 2300FT
Pressure 29.88 in
Visibility 30.0 miles
Clouds Few 7000 ft
Few 10000 ft
Scattered Clouds 22000 ft
Dew Point 27 °F
Humidity 38%
Rainfall 0.00 in
Snow Depth Not available.
4:59 AM 11:43 PM
Waning Crescent, 0% visible
METAR CYXQ 251700Z 32007KT 310V020 30SM FEW070 FEW100 SCT220 11/M03 A2983 RMK AC1AC1CI1 SLP117 DENSITY ALT 2300FT

Get Severe Weather Alerts

Thanks for signing up!

Be on the lookout for a verification email in your inbox.

You'll start receiving the daily forecast at 6 AM.

×

10-Day Weather Forecast

Almanac

Astronomy

May. 25, 2017 Rise Set
Actual Time
Civil Twilight
Nautical Twilight
Astronomical Twilight
Moon
Length of Visible Light
Length of Day
Tomorrow will be .
, % of the Moon is Illuminated

Today's Extremes

Country Highs Country Lows

Community

WunderPhotos

Category 6

Welcome to Category 6. This is the collective home for Weather Underground's featured writeups by Dr. Jeff Masters (right), Bob Henson (left), Chris Burt, and other regular contributors.

Nearby

Air Quality

  Air Quality AQ Index Pollutant
Not available.

Snow Depth

Station Depth Elevation

Earthquake Activity

City Distance Mag. Time & Date
Minimum magnitude displayed is 2.5.

Coastal Water Temperatures

Place Temperature

Stations

Nearby Weather Stations

Station Location Temp. Windchill Dew Point Humidity Wind Precip. Elev Updated Type
                   

Watches & Warnings

There are currently no watches in effect.